Time;durP1;ratioP1;P1;durP2;ratioP2;P2;SDS_P1;SDS_P2;PMS_P1;PMS_P2;Temp;Humidity;BMP_temperature;BMP_pressure;BME280_temperature;BME280_humidity;BME280_pressure;Samples;Min_cycle;Max_cycle;Signal;HPM_P1;HPM_P2
2022/12/22 03:26:35;;;;;;;;;;;;;;;17.28;45.02;101141.47;5076078;28;1085;-44
2022/12/22 03:29:01;;;;;;;;;;;;;;;18.53;43.57;101142.47;5076134;28;1125;-49
2022/12/22 03:31:26;;;;;;;;;;;;;;;17.67;44.87;101136.63;5092744;28;1051;-44
2022/12/22 03:33:52;;;;;;;;;;;;;;;17.20;45.75;101138.44;5086337;28;1118;-46
2022/12/22 03:36:17;;;;;;;;;;;;;;;18.26;43.71;101136.16;5089718;28;1091;-46
2022/12/22 03:38:42;;;;;;;;;;;;;;;17.17;45.54;101137.03;5085223;28;1138;-49
2022/12/22 03:46:28;;;;;;;;;;;;;;;18.86;42.48;101134.66;5079249;28;1124;-49
2022/12/22 03:46:37;;;;;;;;;;;;;;;17.17;45.02;101137.03;5086504;28;1019;-48
2022/12/22 03:49:09;;;;;;;;;;;;;;;18.29;43.51;101132.03;5082337;28;1070;-49
2022/12/22 03:51:35;;;;;;;;;;;;;;;17.21;45.47;101140.09;5095518;28;1093;-47
2022/12/22 03:54:00;;;;;;;;;;;;;;;17.27;45.61;101137.06;5082118;28;1011;-49
2022/12/22 03:56:26;;;;;;;;;;;;;;;17.48;45.30;101133.56;5095281;28;1065;-47
2022/12/22 03:58:51;;;;;;;;;;;;;;;18.21;43.98;101132.56;5095382;28;1181;-46
2022/12/22 04:01:17;;;;;;;;;;;;;;;19.64;40.82;101133.22;5094251;28;1166;-48
2022/12/22 04:03:42;;;;;;;;;;;;;;;17.81;44.41;101129.50;5095552;28;1913;-46
2022/12/22 04:06:08;;;;;;;;;;;;;;;17.23;45.04;101130.44;5095058;28;1098;-46
2022/12/22 04:08:33;;;;;;;;;;;;;;;17.33;45.21;101137.09;5093281;28;1104;-50
2022/12/22 04:13:43;;;;;;;;;;;;;;;17.22;45.17;101134.31;5079989;28;2007;-49
2022/12/22 04:16:08;;;;;;;;;;;;;;;18.66;43.07;101138.31;5097987;28;984;-48
2022/12/22 04:18:34;;;;;;;;;;;;;;;17.43;45.27;101128.88;5098632;28;1200;-49
2022/12/22 04:20:59;;;;;;;;;;;;;;;18.20;43.84;101130.91;5098809;28;1142;-47
2022/12/22 04:23:24;;;;;;;;;;;;;;;18.46;43.27;101138.06;5098420;28;1981;-50
2022/12/22 04:25:50;;;;;;;;;;;;;;;17.38;44.94;101131.63;5097591;28;1030;-45
2022/12/22 04:28:15;;;;;;;;;;;;;;;17.06;45.16;101129.84;5098774;28;1061;-47
2022/12/22 04:30:41;;;;;;;;;;;;;;;17.45;45.05;101133.00;5098199;28;1050;-48
2022/12/22 04:33:06;;;;;;;;;;;;;;;17.89;44.60;101130.88;5099105;28;1042;-45
2022/12/22 04:35:31;;;;;;;;;;;;;;;17.03;45.70;101135.88;5099021;28;1039;-46
2022/12/22 04:37:57;;;;;;;;;;;;;;;16.89;45.45;101132.81;5098836;28;1206;-49
2022/12/22 04:40:22;;;;;;;;;;;;;;;18.26;43.75;101129.84;5098710;28;1165;-45
2022/12/22 04:42:48;;;;;;;;;;;;;;;17.41;45.62;101129.13;5099038;28;1917;-43
2022/12/22 04:45:13;;;;;;;;;;;;;;;19.32;41.48;101135.34;5086987;28;1778;-45
2022/12/22 04:47:39;;;;;;;;;;;;;;;18.21;43.80;101127.06;5098737;28;1090;-44
2022/12/22 04:50:04;;;;;;;;;;;;;;;17.31;44.97;101120.88;5098518;28;1150;-43
2022/12/22 04:52:30;;;;;;;;;;;;;;;18.55;43.09;101131.97;5098974;28;1091;-48
2022/12/22 04:54:55;;;;;;;;;;;;;;;17.45;44.96;101122.00;5098384;28;1134;-45
2022/12/22 04:57:21;;;;;;;;;;;;;;;18.68;42.97;101122.31;5098675;28;1022;-48
2022/12/22 04:59:46;;;;;;;;;;;;;;;18.20;43.60;101125.41;5098300;28;1058;-48
2022/12/22 05:02:11;;;;;;;;;;;;;;;17.34;45.07;101125.00;5098222;28;1925;-50
2022/12/22 05:04:37;;;;;;;;;;;;;;;17.83;44.80;101127.31;5098214;28;1122;-47
2022/12/22 05:07:02;;;;;;;;;;;;;;;17.49;45.14;101127.81;5098355;28;1161;-45
2022/12/22 05:09:28;;;;;;;;;;;;;;;17.94;44.68;101128.19;5098924;28;1110;-48
2022/12/22 05:11:53;;;;;;;;;;;;;;;19.19;41.53;101118.59;5098297;28;1130;-44
2022/12/22 05:14:19;;;;;;;;;;;;;;;17.59;44.83;101127.00;5097734;28;1819;-48
2022/12/22 05:16:44;;;;;;;;;;;;;;;17.16;44.96;101129.06;5098284;28;1093;-49
2022/12/22 05:19:09;;;;;;;;;;;;;;;18.38;43.25;101135.84;5097596;28;1030;-46
2022/12/22 05:21:35;;;;;;;;;;;;;;;17.32;45.11;101128.03;5097458;28;1093;-45
2022/12/22 05:24:00;;;;;;;;;;;;;;;18.61;42.80;101139.16;5097590;28;1901;-48
2022/12/22 05:26:26;;;;;;;;;;;;;;;18.50;42.82;101140.28;5097277;28;1034;-46
2022/12/22 05:28:51;;;;;;;;;;;;;;;17.37;44.93;101136.28;5097446;28;1149;-48
2022/12/22 05:31:17;;;;;;;;;;;;;;;17.24;45.13;101143.09;5098337;28;1057;-49
2022/12/22 05:33:43;;;;;;;;;;;;;;;18.24;43.35;101143.03;5097363;28;1189;-44
2022/12/22 05:36:08;;;;;;;;;;;;;;;17.32;44.93;101149.19;5098019;28;1355;-46
2022/12/22 05:38:34;;;;;;;;;;;;;;;18.05;44.33;101149.09;5097295;28;1231;-48
2022/12/22 05:40:59;;;;;;;;;;;;;;;17.55;44.78;101140.44;5097978;28;1094;-44
2022/12/22 05:43:24;;;;;;;;;;;;;;;17.97;44.32;101137.81;5095267;28;2434;-46
2022/12/22 05:45:51;;;;;;;;;;;;;;;18.95;41.87;101144.03;5089257;28;1121;-47
2022/12/22 05:48:17;;;;;;;;;;;;;;;17.51;44.65;101139.34;5097174;28;1074;-50
2022/12/22 05:50:42;;;;;;;;;;;;;;;17.09;45.12;101146.59;5085533;28;864;-45
2022/12/22 05:53:08;;;;;;;;;;;;;;;18.73;42.66;101145.19;5095716;28;1106;-43
2022/12/22 05:55:34;;;;;;;;;;;;;;;17.38;44.88;101159.13;5097499;28;1054;-49
2022/12/22 05:58:00;;;;;;;;;;;;;;;18.26;43.67;101151.84;5097449;28;1181;-50
2022/12/22 06:00:26;;;;;;;;;;;;;;;18.20;43.36;101152.94;5097475;28;1134;-49
2022/12/22 06:02:51;;;;;;;;;;;;;;;17.31;44.87;101155.78;5097029;28;1906;-49
2022/12/22 06:05:17;;;;;;;;;;;;;;;18.52;43.18;101155.38;5097182;28;1098;-48
2022/12/22 06:07:42;;;;;;;;;;;;;;;17.44;44.78;101158.84;5097342;28;1103;-48
2022/12/22 06:10:08;;;;;;;;;;;;;;;16.91;45.36;101158.06;5097496;28;983;-46
2022/12/22 06:12:34;;;;;;;;;;;;;;;18.37;43.50;101159.00;5097267;28;1137;-45
2022/12/22 06:14:59;;;;;;;;;;;;;;;17.20;45.59;101157.66;5093670;28;2531;-49
2022/12/22 06:17:24;;;;;;;;;;;;;;;18.36;43.35;101156.53;5096727;28;1190;-50
2022/12/22 06:19:50;;;;;;;;;;;;;;;18.67;42.37;101164.75;5097044;28;1030;-49
2022/12/22 06:22:15;;;;;;;;;;;;;;;17.31;45.28;101164.03;5097073;28;1909;-45
2022/12/22 06:24:41;;;;;;;;;;;;;;;19.00;41.97;101174.34;5096876;28;1134;-47
2022/12/22 06:27:06;;;;;;;;;;;;;;;17.16;45.34;101167.53;5096793;28;915;-50
2022/12/22 06:29:32;;;;;;;;;;;;;;;17.29;45.50;101167.03;5096901;28;1070;-48
2022/12/22 06:31:57;;;;;;;;;;;;;;;17.06;46.12;101169.13;5096701;28;1003;-46
2022/12/22 06:34:22;;;;;;;;;;;;;;;16.87;46.63;101176.13;5096436;28;1058;-49
2022/12/22 06:36:48;;;;;;;;;;;;;;;16.63;46.89;101171.03;5096267;28;1086;-48
2022/12/22 06:39:14;;;;;;;;;;;;;;;16.43;47.47;101169.81;5095737;28;1309;-49
2022/12/22 06:44:23;;;;;;;;;;;;;;;16.10;48.06;101175.56;5088628;28;2507;-49
2022/12/22 06:46:49;;;;;;;;;;;;;;;15.97;48.30;101176.84;5096052;28;1126;-48
2022/12/22 06:49:14;;;;;;;;;;;;;;;15.87;48.49;101174.81;5096860;28;1167;-44
2022/12/22 06:51:40;;;;;;;;;;;;;;;15.72;49.00;101180.94;5095880;28;1500;-44
2022/12/22 06:54:05;;;;;;;;;;;;;;;15.58;49.20;101177.75;5096093;28;1134;-49
2022/12/22 06:56:30;;;;;;;;;;;;;;;15.51;49.33;101179.88;5096193;28;1097;-47
2022/12/22 06:58:56;;;;;;;;;;;;;;;15.46;49.59;101179.81;5095772;28;1018;-46
2022/12/22 07:01:21;;;;;;;;;;;;;;;17.10;45.60;101172.19;5095965;28;1003;-49
2022/12/22 07:03:47;;;;;;;;;;;;;;;16.24;47.42;101169.41;5095963;28;1979;-48
2022/12/22 07:06:12;;;;;;;;;;;;;;;15.85;48.54;101172.34;5096379;28;1122;-48
2022/12/22 07:08:37;;;;;;;;;;;;;;;15.62;49.05;101175.34;5096041;28;1165;-48
2022/12/22 07:11:03;;;;;;;;;;;;;;;15.53;49.17;101185.94;5096373;28;1084;-49
2022/12/22 07:13:30;;;;;;;;;;;;;;;17.10;45.37;101181.25;5095263;28;1986;-46
2022/12/22 07:15:56;;;;;;;;;;;;;;;16.29;47.08;101176.03;5095755;28;880;-44
2022/12/22 07:18:21;;;;;;;;;;;;;;;15.80;48.33;101185.97;5095603;28;1208;-47
2022/12/22 07:20:46;;;;;;;;;;;;;;;15.62;48.81;101175.34;5095950;28;924;-49
2022/12/22 07:23:12;;;;;;;;;;;;;;;15.47;49.27;101192.44;5095660;28;1914;-46
2022/12/22 07:25:37;;;;;;;;;;;;;;;16.62;46.33;101191.38;5095916;28;1197;-48
2022/12/22 07:28:03;;;;;;;;;;;;;;;16.62;46.41;101185.88;5095205;28;836;-49
2022/12/22 07:30:28;;;;;;;;;;;;;;;15.90;48.12;101190.75;5094249;28;1293;-49
2022/12/22 07:32:54;;;;;;;;;;;;;;;15.65;48.87;101194.00;5095855;28;1034;-50
2022/12/22 07:35:19;;;;;;;;;;;;;;;16.53;46.70;101188.28;5095803;28;1094;-46
2022/12/22 07:37:46;;;;;;;;;;;;;;;16.76;45.97;101195.31;5095397;28;996;-49
2022/12/22 07:40:12;;;;;;;;;;;;;;;16.03;47.64;101189.50;5095908;28;1007;-49
2022/12/22 07:42:43;;;;;;;;;;;;;;;15.77;48.33;101191.13;5095800;28;1966;-48
2022/12/22 07:45:09;;;;;;;;;;;;;;;15.52;49.19;101196.06;5087901;28;2715;-46
2022/12/22 07:47:34;;;;;;;;;;;;;;;16.24;47.44;101193.25;5095601;28;1117;-45
2022/12/22 07:52:44;;;;;;;;;;;;;;;16.00;47.86;101190.03;5098387;28;1014;-52
2022/12/22 07:55:09;;;;;;;;;;;;;;;15.68;48.48;101201.72;5099512;28;1206;-49
2022/12/22 07:57:35;;;;;;;;;;;;;;;15.48;49.19;101196.84;5099000;28;1050;-48
2022/12/22 08:00:00;;;;;;;;;;;;;;;16.45;46.64;101194.25;5099847;28;1010;-45
2022/12/22 08:02:25;;;;;;;;;;;;;;;17.00;45.22;101200.44;5098835;28;1971;-45
2022/12/22 08:04:51;;;;;;;;;;;;;;;16.13;47.51;101200.59;5099240;28;1074;-46
2022/12/22 08:07:16;;;;;;;;;;;;;;;15.77;48.57;101188.38;5099153;28;1188;-47
2022/12/22 08:09:42;;;;;;;;;;;;;;;15.51;48.88;101185.34;5099889;28;1058;-48
2022/12/22 08:12:07;;;;;;;;;;;;;;;15.67;48.91;101184.44;5099953;28;1111;-49
2022/12/22 08:14:33;;;;;;;;;;;;;;;17.23;44.91;101182.66;5097940;28;2471;-46
2022/12/22 08:16:58;;;;;;;;;;;;;;;16.28;47.23;101180.66;5099426;28;1077;-48
2022/12/22 08:19:24;;;;;;;;;;;;;;;15.78;48.21;101173.59;5099335;28;1046;-48
2022/12/22 08:21:49;;;;;;;;;;;;;;;16.48;46.76;101174.53;5098815;28;1910;-46
2022/12/22 08:24:14;;;;;;;;;;;;;;;16.91;45.44;101171.81;5098753;28;1095;-45
2022/12/22 08:26:40;;;;;;;;;;;;;;;16.10;47.55;101167.34;5098702;28;1220;-47
2022/12/22 08:29:07;;;;;;;;;;;;;;;15.76;48.32;101156.56;5098081;28;1006;-47
2022/12/22 08:31:33;;;;;;;;;;;;;;;15.62;48.65;101156.97;5097440;28;1083;-47
2022/12/22 08:33:58;;;;;;;;;;;;;;;17.23;44.77;101162.63;5097272;28;1091;-46
2022/12/22 08:36:24;;;;;;;;;;;;;;;16.33;46.78;101145.03;5098451;28;1030;-45
2022/12/22 08:38:49;;;;;;;;;;;;;;;15.86;48.14;101156.69;5098806;28;1313;-49
2022/12/22 08:41:15;;;;;;;;;;;;;;;15.60;48.77;101141.88;5097086;28;1121;-45
2022/12/22 08:43:40;;;;;;;;;;;;;;;16.16;47.35;101141.59;5092323;28;2473;-42
2022/12/22 08:46:06;;;;;;;;;;;;;;;17.35;44.56;101146.72;5096045;28;1087;-46
2022/12/22 08:48:31;;;;;;;;;;;;;;;16.23;46.96;101136.75;5098905;28;1003;-47
2022/12/22 08:50:57;;;;;;;;;;;;;;;15.84;48.05;101131.47;5098345;28;1113;-45
2022/12/22 08:53:22;;;;;;;;;;;;;;;15.63;48.61;101130.41;5098492;28;1121;-47
2022/12/22 08:55:53;;;;;;;;;;;;;;;17.23;44.74;101129.63;5098145;28;987;-46
2022/12/22 08:58:19;;;;;;;;;;;;;;;16.50;46.48;101130.34;5098698;28;1085;-47
2022/12/22 09:00:45;;;;;;;;;;;;;;;15.90;47.79;101128.50;5084202;28;1085;-48
2022/12/22 09:03:10;;;;;;;;;;;;;;;15.66;48.50;101127.16;5098273;28;1970;-48
2022/12/22 09:05:37;;;;;;;;;;;;;;;15.55;48.83;101127.03;5098754;28;1113;-48
2022/12/22 09:08:05;;;;;;;;;;;;;;;17.21;45.04;101127.16;5098346;28;1042;-47
2022/12/22 09:10:31;;;;;;;;;;;;;;;16.23;47.13;101118.34;5098183;28;1074;-44
2022/12/22 09:12:57;;;;;;;;;;;;;;;15.80;47.99;101114.69;5098418;28;1083;-47
2022/12/22 09:15:22;;;;;;;;;;;;;;;15.57;48.92;101113.06;5092723;28;2483;-46
2022/12/22 09:17:48;;;;;;;;;;;;;;;15.46;49.21;101116.78;5089265;28;1114;-49
2022/12/22 09:20:13;;;;;;;;;;;;;;;17.06;45.14;101107.88;5097873;28;1039;-49
2022/12/22 09:22:39;;;;;;;;;;;;;;;16.44;46.34;101102.03;5098664;28;1983;-46
2022/12/22 09:25:04;;;;;;;;;;;;;;;15.89;48.05;101096.69;5098243;28;1111;-48
2022/12/22 09:27:30;;;;;;;;;;;;;;;15.63;48.50;101092.84;5086827;28;998;-46
2022/12/22 09:29:55;;;;;;;;;;;;;;;15.40;49.00;101099.44;5095947;28;1126;-48
2022/12/22 09:32:20;;;;;;;;;;;;;;;16.84;45.77;101088.78;5098161;28;1019;-50
2022/12/22 09:34:47;;;;;;;;;;;;;;;17.03;45.18;101094.69;5097622;28;982;-48
2022/12/22 09:37:13;;;;;;;;;;;;;;;16.14;47.28;101091.66;5097643;28;1018;-49
2022/12/22 09:39:39;;;;;;;;;;;;;;;15.72;48.42;101080.34;5097096;28;1058;-48
2022/12/22 09:42:04;;;;;;;;;;;;;;;15.96;47.83;101081.91;5098235;28;1913;-46
2022/12/22 09:44:37;;;;;;;;;;;;;;;17.22;44.79;101073.00;5089670;28;1856;-50
2022/12/22 09:47:34;;;;;;;;;;;;;;;16.11;47.25;101071.06;5097470;28;1110;-48
2022/12/22 09:50:00;;;;;;;;;;;;;;;15.70;48.61;101067.97;5089136;28;1348;-49
2022/12/22 09:52:34;;;;;;;;;;;;;;;15.50;48.95;101071.31;5097736;28;1070;-49
2022/12/22 09:55:00;;;;;;;;;;;;;;;16.86;45.89;101076.44;5097466;28;1440;-47
2022/12/22 09:57:28;;;;;;;;;;;;;;;16.64;46.12;101076.59;5097509;28;1173;-44
2022/12/22 09:59:54;;;;;;;;;;;;;;;15.95;47.91;101072.03;5096142;28;1098;-49
2022/12/22 10:02:19;;;;;;;;;;;;;;;15.68;48.71;101061.91;5095674;28;1979;-49
2022/12/22 10:05:03;;;;;;;;;;;;;;;16.56;46.35;101061.47;5097266;28;847;-49
2022/12/22 10:07:33;;;;;;;;;;;;;;;16.42;46.54;101066.63;5084445;28;1019;-50
2022/12/22 10:10:14;;;;;;;;;;;;;;;15.84;48.15;101055.50;5096640;28;1113;-46
2022/12/22 10:12:39;;;;;;;;;;;;;;;15.58;48.65;101048.94;5094604;28;1118;-45
2022/12/22 10:15:06;;;;;;;;;;;;;;;16.12;47.53;101049.94;5096322;28;2508;-47
2022/12/22 10:17:32;;;;;;;;;;;;;;;17.19;44.64;101046.09;5095502;28;1174;-46
2022/12/22 10:20:16;;;;;;;;;;;;;;;16.14;47.42;101040.34;5096763;28;1030;-48
2022/12/22 10:22:48;;;;;;;;;;;;;;;15.71;48.34;101040.28;5096550;28;1971;-47
2022/12/22 10:25:33;;;;;;;;;;;;;;;15.71;48.65;101034.81;5096610;28;1089;-48
2022/12/22 10:28:00;;;;;;;;;;;;;;;17.13;44.94;101030.69;5096679;28;1041;-50
2022/12/22 10:30:26;;;;;;;;;;;;;;;16.06;47.38;101025.22;5096773;28;1058;-47
2022/12/22 10:33:08;;;;;;;;;;;;;;;15.70;48.48;101027.66;5097177;28;1162;-46
2022/12/22 10:35:45;;;;;;;;;;;;;;;16.02;47.88;101024.09;5096709;28;1050;-47
2022/12/22 10:38:18;;;;;;;;;;;;;;;17.18;44.85;101014.19;5096430;28;1263;-46
2022/12/22 10:40:44;;;;;;;;;;;;;;;16.12;47.46;101015.13;5096365;28;1085;-48
2022/12/22 10:43:10;;;;;;;;;;;;;;;15.76;48.51;101009.34;5094100;28;2299;-45
2022/12/22 10:45:35;;;;;;;;;;;;;;;15.53;48.87;101005.88;5088078;28;1396;-49
2022/12/22 10:48:01;;;;;;;;;;;;;;;17.03;45.28;101002.09;5095170;28;1205;-49
2022/12/22 10:50:26;;;;;;;;;;;;;;;16.43;46.63;100996.06;5097166;28;1134;-48
2022/12/22 10:52:53;;;;;;;;;;;;;;;15.87;48.01;100988.34;5095442;28;1450;-45
2022/12/22 10:55:18;;;;;;;;;;;;;;;15.63;48.84;100993.34;5094881;28;1027;-49
2022/12/22 10:57:43;;;;;;;;;;;;;;;17.12;45.27;100987.81;5096386;28;1125;-48
2022/12/22 11:00:22;;;;;;;;;;;;;;;16.45;46.70;100987.56;5094975;28;1082;-49
2022/12/22 11:02:51;;;;;;;;;;;;;;;15.88;47.98;100985.34;5083320;28;1971;-48
2022/12/22 11:05:17;;;;;;;;;;;;;;;15.63;48.89;100983.19;5095560;28;1213;-47
2022/12/22 11:07:42;;;;;;;;;;;;;;;15.90;48.11;100976.84;5095168;28;1088;-46
2022/12/22 11:10:13;;;;;;;;;;;;;;;17.30;44.53;100976.28;5095872;28;1181;-47
2022/12/22 11:12:44;;;;;;;;;;;;;;;16.23;47.13;100972.91;5096395;28;1107;-48
2022/12/22 11:15:32;;;;;;;;;;;;;;;15.82;48.31;100974.59;5094404;28;2679;-47
2022/12/22 11:17:57;;;;;;;;;;;;;;;15.99;47.84;100964.28;5095613;28;928;-46
2022/12/22 11:20:38;;;;;;;;;;;;;;;17.31;44.59;100960.66;5096410;28;1146;-47
2022/12/22 11:23:14;;;;;;;;;;;;;;;16.18;47.32;100963.84;5095473;28;1982;-46
2022/12/22 11:25:43;;;;;;;;;;;;;;;15.80;48.47;100963.06;5094895;28;1115;-49
2022/12/22 11:28:25;;;;;;;;;;;;;;;15.55;49.07;100959.00;5092336;28;1139;-45
2022/12/22 11:30:50;;;;;;;;;;;;;;;17.02;45.54;100959.22;5091722;28;1035;-49
2022/12/22 11:33:19;;;;;;;;;;;;;;;16.49;46.74;100955.75;5094236;28;1229;-48
2022/12/22 11:36:01;;;;;;;;;;;;;;;15.90;47.89;100957.63;5095666;28;1072;-49
2022/12/22 11:38:44;;;;;;;;;;;;;;;15.68;48.60;100950.34;5094382;28;1484;-46
2022/12/22 11:41:09;;;;;;;;;;;;;;;17.24;44.71;100945.22;5095493;28;1110;-46
2022/12/22 11:43:35;;;;;;;;;;;;;;;16.19;47.38;100944.38;5091737;28;1978;-48
2022/12/22 11:46:00;;;;;;;;;;;;;;;15.84;48.43;100942.25;5091897;28;1191;-47
2022/12/22 11:48:28;;;;;;;;;;;;;;;15.58;48.77;100939.28;5096508;28;1127;-47
2022/12/22 11:51:17;;;;;;;;;;;;;;;16.05;48.07;100940.47;5095220;28;1120;-47
2022/12/22 11:53:59;;;;;;;;;;;;;;;17.07;45.30;100939.19;5065114;28;1291;-48
2022/12/22 11:56:24;;;;;;;;;;;;;;;16.06;47.68;100940.19;5083807;28;1091;-47
2022/12/22 11:59:02;;;;;;;;;;;;;;;15.73;48.75;100933.91;5095739;28;1089;-47
2022/12/22 12:02:03;;;;;;;;;;;;;;;16.60;46.64;100929.97;5095346;28;1046;-48
2022/12/22 12:04:28;;;;;;;;;;;;;;;16.58;46.43;100927.50;5052965;28;1108;-46
2022/12/22 12:06:55;;;;;;;;;;;;;;;15.98;47.79;100928.91;5086266;28;1106;-47
2022/12/22 12:09:35;;;;;;;;;;;;;;;15.70;48.77;100928.97;5095636;28;1058;-47
2022/12/22 12:12:03;;;;;;;;;;;;;;;16.80;46.36;100928.38;5093896;28;1097;-49
2022/12/22 12:14:43;;;;;;;;;;;;;;;16.75;46.00;100931.94;5093051;28;2733;-49
2022/12/22 12:17:17;;;;;;;;;;;;;;;16.04;47.97;100919.59;5095270;28;1027;-50
2022/12/22 12:19:50;;;;;;;;;;;;;;;15.72;48.88;100921.31;5095657;28;1066;-48
2022/12/22 12:22:39;;;;;;;;;;;;;;;15.52;49.11;100921.16;5081711;28;1962;-50
2022/12/22 12:25:37;;;;;;;;;;;;;;;15.66;49.19;100922.34;5069543;28;1120;-51
2022/12/22 12:28:05;;;;;;;;;;;;;;;17.14;45.26;100912.25;5064651;28;1119;-47
2022/12/22 12:30:33;;;;;;;;;;;;;;;16.11;47.83;100922.09;5094953;28;927;-47
2022/12/22 12:32:58;;;;;;;;;;;;;;;15.72;48.77;100921.31;5093860;28;1131;-49
2022/12/22 12:35:41;;;;;;;;;;;;;;;16.07;48.06;100924.53;5095155;28;1110;-45
2022/12/22 12:38:08;;;;;;;;;;;;;;;17.20;45.03;100924.09;5097655;28;1126;-47
2022/12/22 12:40:35;;;;;;;;;;;;;;;16.16;47.76;100917.47;5098673;28;1039;-43
2022/12/22 12:43:00;;;;;;;;;;;;;;;15.80;48.46;100924.69;5098166;28;1977;-48
2022/12/22 12:45:33;;;;;;;;;;;;;;;15.59;49.03;100921.75;5090213;28;2519;-43
2022/12/22 12:48:17;;;;;;;;;;;;;;;16.52;46.90;100919.53;5097317;28;1139;-47
2022/12/22 12:50:43;;;;;;;;;;;;;;;16.82;46.14;100916.03;5098290;28;1038;-44
2022/12/22 12:53:09;;;;;;;;;;;;;;;16.06;47.86;100920.16;5098130;28;1011;-47
2022/12/22 12:55:37;;;;;;;;;;;;;;;15.72;48.66;100918.56;5097440;28;1079;-47
2022/12/22 12:58:03;;;;;;;;;;;;;;;16.64;46.95;100920.09;5098467;28;1102;-47
2022/12/22 13:00:31;;;;;;;;;;;;;;;16.90;45.82;100917.44;5097539;28;1151;-47
2022/12/22 13:02:58;;;;;;;;;;;;;;;16.07;47.86;100922.66;5098617;28;1952;-45
2022/12/22 13:05:35;;;;;;;;;;;;;;;15.76;48.63;100916.13;5098484;28;1086;-44
2022/12/22 13:08:15;;;;;;;;;;;;;;;16.33;47.59;100916.44;5098385;28;1189;-49
2022/12/22 13:10:47;;;;;;;;;;;;;;;16.70;46.43;100908.03;5098619;28;1149;-48
2022/12/22 13:13:38;;;;;;;;;;;;;;;15.95;48.25;100921.19;5097281;28;1791;-46
2022/12/22 13:16:03;;;;;;;;;;;;;;;15.64;49.28;100918.22;5081170;28;1395;-48
2022/12/22 13:18:32;;;;;;;;;;;;;;;15.52;49.28;100911.03;5097316;28;1098;-49
2022/12/22 13:20:58;;;;;;;;;;;;;;;17.16;45.64;100915.56;5097757;28;1038;-46
2022/12/22 13:23:27;;;;;;;;;;;;;;;16.41;47.35;100913.16;5098026;28;1913;-49
2022/12/22 13:25:53;;;;;;;;;;;;;;;15.88;48.49;100915.97;5097911;28;1038;-46
2022/12/22 13:28:19;;;;;;;;;;;;;;;15.66;49.30;100916.06;5097967;28;998;-47
2022/12/22 13:30:48;;;;;;;;;;;;;;;16.15;47.91;100912.25;5096726;28;1166;-49
2022/12/22 13:33:14;;;;;;;;;;;;;;;17.30;45.01;100915.81;5097529;28;1131;-43
2022/12/22 13:35:40;;;;;;;;;;;;;;;16.24;47.56;100916.97;5098358;28;1012;-42
2022/12/22 13:38:05;;;;;;;;;;;;;;;15.82;48.91;100914.25;5097805;28;1303;-46
2022/12/22 13:40:40;;;;;;;;;;;;;;;15.61;49.23;100914.09;5097829;28;1025;-46
2022/12/22 13:43:09;;;;;;;;;;;;;;;17.18;45.41;100918.03;5084185;28;1906;-44
2022/12/22 13:45:38;;;;;;;;;;;;;;;16.42;47.09;100912.06;5096100;28;1058;-49
2022/12/22 13:48:08;;;;;;;;;;;;;;;15.89;48.50;100912.09;5097683;28;962;-49
2022/12/22 13:50:35;;;;;;;;;;;;;;;15.64;49.45;100901.78;5096052;28;1119;-48
2022/12/22 13:53:00;;;;;;;;;;;;;;;15.56;49.52;100912.16;5097036;28;1039;-46
2022/12/22 13:55:27;;;;;;;;;;;;;;;17.17;45.52;100908.97;5089985;28;1026;-48
2022/12/22 13:57:52;;;;;;;;;;;;;;;16.37;47.34;100912.91;5097455;28;1107;-45
2022/12/22 14:00:19;;;;;;;;;;;;;;;15.85;48.99;100908.25;5097449;28;1034;-46
2022/12/22 14:02:44;;;;;;;;;;;;;;;15.60;49.32;100897.91;5097960;28;1985;-47
2022/12/22 14:05:10;;;;;;;;;;;;;;;16.83;46.43;100894.88;5096508;28;1050;-47
2022/12/22 14:07:36;;;;;;;;;;;;;;;17.00;45.95;100901.00;5084445;28;1030;-49
2022/12/22 14:10:01;;;;;;;;;;;;;;;16.17;48.07;100899.94;5097695;28;1134;-46
2022/12/22 14:12:30;;;;;;;;;;;;;;;15.77;49.06;100901.31;5096868;28;1086;-48
2022/12/22 14:14:56;;;;;;;;;;;;;;;15.56;49.58;100905.84;5095979;28;2655;-43
2022/12/22 14:17:22;;;;;;;;;;;;;;;16.95;46.48;100905.66;5096905;28;1070;-44
2022/12/22 14:19:48;;;;;;;;;;;;;;;16.50;47.31;100905.25;5096839;28;1010;-49
2022/12/22 14:22:13;;;;;;;;;;;;;;;15.92;48.85;100897.84;5096504;28;1897;-47
2022/12/22 14:24:47;;;;;;;;;;;;;;;15.63;49.52;100895.47;5095359;28;1016;-45
2022/12/22 14:27:31;;;;;;;;;;;;;;;15.48;49.97;100892.63;5097176;28;1063;-49
2022/12/22 14:29:57;;;;;;;;;;;;;;;17.07;45.92;100892.47;5103600;28;1407;-46
2022/12/22 14:32:36;;;;;;;;;;;;;;;16.52;47.24;100900.31;5096834;28;991;-48
2022/12/22 14:35:01;;;;;;;;;;;;;;;15.87;48.78;100897.84;5096884;28;1158;-45
2022/12/22 14:37:27;;;;;;;;;;;;;;;15.62;49.39;100898.50;5096670;28;1023;-46
2022/12/22 14:39:55;;;;;;;;;;;;;;;16.43;47.47;100902.75;5096204;28;1161;-49
2022/12/22 14:42:21;;;;;;;;;;;;;;;16.75;46.49;100893.50;5096600;28;1905;-47
2022/12/22 14:44:47;;;;;;;;;;;;;;;15.94;48.82;100894.88;5083740;28;2533;-47
2022/12/22 14:47:17;;;;;;;;;;;;;;;15.62;49.51;100893.81;5096739;28;1062;-48
2022/12/22 14:49:49;;;;;;;;;;;;;;;16.17;48.21;100893.59;5082995;28;1163;-45
2022/12/22 14:52:17;;;;;;;;;;;;;;;17.11;45.87;100888.09;5096308;28;1173;-45
2022/12/22 14:54:44;;;;;;;;;;;;;;;16.08;48.30;100887.81;5095454;28;883;-48
2022/12/22 14:57:10;;;;;;;;;;;;;;;15.72;49.50;100891.16;5095208;28;1102;-47
2022/12/22 14:59:35;;;;;;;;;;;;;;;15.52;49.77;100885.53;5096546;28;1030;-49
2022/12/22 15:02:02;;;;;;;;;;;;;;;16.52;47.60;100898.41;5096391;28;1089;-49
2022/12/22 15:04:27;;;;;;;;;;;;;;;17.03;46.00;100897.69;5096290;28;1078;-45
2022/12/22 15:07:02;;;;;;;;;;;;;;;16.06;48.54;100899.03;5095911;28;1019;-49
2022/12/22 15:09:28;;;;;;;;;;;;;;;15.71;49.53;100897.72;5096659;28;1006;-47
2022/12/22 15:12:08;;;;;;;;;;;;;;;15.51;50.03;100892.91;5096656;28;1103;-47
2022/12/22 15:14:34;;;;;;;;;;;;;;;16.57;47.56;100901.13;5084413;28;1801;-49
2022/12/22 15:17:02;;;;;;;;;;;;;;;16.86;46.74;100889.69;5094773;28;1015;-46
2022/12/22 15:19:29;;;;;;;;;;;;;;;15.98;48.90;100891.31;5095067;28;965;-47
2022/12/22 15:21:54;;;;;;;;;;;;;;;15.66;49.59;100897.69;5094622;28;1155;-49
2022/12/22 15:24:20;;;;;;;;;;;;;;;15.76;49.72;100898.84;5096206;28;1905;-45
2022/12/22 15:26:45;;;;;;;;;;;;;;;17.34;45.73;100899.63;5095905;28;1094;-48
2022/12/22 15:29:10;;;;;;;;;;;;;;;16.40;47.87;100901.38;5096226;28;998;-44
2022/12/22 15:31:36;;;;;;;;;;;;;;;15.84;49.04;100893.72;5095605;28;1201;-47
2022/12/22 15:34:02;;;;;;;;;;;;;;;16.11;48.67;100897.41;5096192;28;998;-46
2022/12/22 15:36:28;;;;;;;;;;;;;;;17.44;45.51;100897.66;5096288;28;1046;-49
2022/12/22 15:38:53;;;;;;;;;;;;;;;16.36;47.90;100902.19;5096015;28;1093;-49
2022/12/22 15:41:19;;;;;;;;;;;;;;;15.91;49.17;100905.28;5095844;28;1133;-47
2022/12/22 15:43:44;;;;;;;;;;;;;;;15.66;49.88;100905.09;5090289;28;2226;-46
2022/12/22 15:46:10;;;;;;;;;;;;;;;17.05;46.27;100903.72;5096715;28;1029;-44
2022/12/22 15:48:35;;;;;;;;;;;;;;;16.81;46.91;100902.59;5094736;28;1174;-47
2022/12/22 15:51:01;;;;;;;;;;;;;;;16.13;48.77;100896.06;5095010;28;1206;-47
2022/12/22 15:53:26;;;;;;;;;;;;;;;16.10;49.06;100904.00;5094918;28;1098;-48
2022/12/22 15:55:52;;;;;;;;;;;;;;;17.33;45.86;100904.28;5096184;28;1174;-49
2022/12/22 15:58:19;;;;;;;;;;;;;;;16.27;48.65;100909.28;5096182;28;1090;-47
2022/12/22 16:00:44;;;;;;;;;;;;;;;15.91;49.52;100909.94;5096121;28;1069;-45
2022/12/22 16:03:10;;;;;;;;;;;;;;;15.72;50.01;100896.66;5095308;28;2001;-47
2022/12/22 16:05:35;;;;;;;;;;;;;;;15.81;50.05;100904.38;5095858;28;1055;-45
2022/12/22 16:08:01;;;;;;;;;;;;;;;17.23;46.44;100909.78;5095564;28;839;-48
2022/12/22 16:10:30;;;;;;;;;;;;;;;16.30;48.72;100908.72;5096090;28;1094;-47
2022/12/22 16:12:59;;;;;;;;;;;;;;;15.85;49.95;100902.75;5099437;28;1009;-45
2022/12/22 16:15:25;;;;;;;;;;;;;;;15.63;50.31;100911.94;5098855;28;2479;-46
2022/12/22 16:17:51;;;;;;;;;;;;;;;16.30;48.99;100917.81;5099671;28;1063;-47
2022/12/22 16:20:17;;;;;;;;;;;;;;;17.21;46.44;100912.81;5097030;28;1038;-42
2022/12/22 16:22:43;;;;;;;;;;;;;;;16.17;48.91;100921.88;5087978;28;1980;-44
2022/12/22 16:25:15;;;;;;;;;;;;;;;15.82;50.07;100915.09;5099249;28;1038;-46
2022/12/22 16:27:40;;;;;;;;;;;;;;;15.60;50.23;100926.16;5098186;28;1091;-42